Mooresville, AL

9:32 AM CDT on April 25, 2015 (GMT -0500)
madison | | Change Station
CLOSE
Current Station
Personal Weather Station
Location: Madison, AL
Elevation: 751 ft
Nearby Weather Stations

Elev 751 ft 34.71 °N, 86.75 °W | Updated 4 seconds ago

Mostly Cloudy
Mostly Cloudy
64.0 °F
Feels Like 64.0 °F
N
2.9
Wind Variable Wind from SE
Gusts 7.0 mph

Today
High -- | Low -- °F
--% Chance of Precip.
Yesterday
High -- | Low -- °F
Precip. -- in
6:03 AM 7:26 PM
Waxing Crescent, 46% visible
Pressure 29.74 in
Visibility 10.0 miles
Clouds Mostly Cloudy 1300 ft
Dew Point 62 °F
Humidity 92%
Rainfall 0.72 in
Snow Depth Not available.
UV 2 out of 12
Pollen 7.80 out of 12
Air Quality Not available.
Flu Activity No Activity
SPECI KHUA 251403Z AUTO 18015KT 10SM BKN013 19/17 A2974 RMK AO2 CIG 013V160 BKN V SCT

More Conditions Fewer Conditions

Pressure 29.74 in
Visibility 10.0 miles
Clouds Mostly Cloudy 1300 ft
Dew Point 62 °F
Humidity 92%
Rainfall 0.72 in
Snow Depth Not available.
UV 2 out of 12
Pollen 7.80 out of 12
Air Quality Not available.
Flu Activity No Activity
SPECI KHUA 251403Z AUTO 18015KT 10SM BKN013 19/17 A2974 RMK AO2 CIG 013V160 BKN V SCT

More Conditions Fewer Conditions

10-Day Weather Forecast

Almanac

Astronomy

Apr. 25, 2015 Rise Set
Actual Time
Civil Twilight
Nautical Twilight
Astronomical Twilight
Moon
Length of Visible Light
Length of Day
Tomorrow will be .
, % of the Moon is Illuminated

Today's Extremes

State Highs State Lows

Community

WunderPhotos

Upload Photos

1,816,688 photos uploaded!

WunderBlogs® & News

Nearby

Air Quality

  Air Quality AQ Index Pollutant
Not available.

Snow Depth

Station Depth Elevation

Earthquake Activity

City Distance Mag. Time & Date
Minimum magnitude displayed is 2.5.

Coastal Water Temperatures

Place Temperature

Stations

Nearby Weather Stations

Station Location Temp. Windchill Dew Point Humidity Wind Precip. Elev Updated Type